Friendship, ME (04547)

7:52 AM EDT on March 29, 2017 (GMT -0400)
weatherman David | | Change Station

Elev 0 ft 43.98 °N, 69.32 °W | Updated 1 second ago

Overcast
Overcast
34.7 °F
Feels Like 30 °F
N
5.6
Wind Variable Wind from NW
Gusts 6.9 mph

Today
High -- | Low -- °F
--% Chance of Precip.
Yesterday
High -- | Low -- °F
Precip. -- in
Pressure 29.99 in
Visibility 10.0 miles
Clouds Few 600 ft
Overcast 1100 ft
Windchill 30 °F
Dew Point 34 °F
Humidity 99%
Rainfall 0.17 in
Snow Depth Not available.
6:23 AM 7:00 PM
Waxing Crescent, 3% visible
SPECI KRKD 291118Z AUTO 00000KT 10SM FEW006 OVC011 01/01 A2999 RMK AO2 FZRANO
Pressure 29.99 in
Visibility 10.0 miles
Clouds Few 600 ft
Overcast 1100 ft
Windchill 30 °F
Dew Point 34 °F
Humidity 99%
Rainfall 0.17 in
Snow Depth Not available.
6:23 AM 7:00 PM
Waxing Crescent, 3% visible
SPECI KRKD 291118Z AUTO 00000KT 10SM FEW006 OVC011 01/01 A2999 RMK AO2 FZRANO

Get Severe Weather Alerts

Thanks for signing up!

Be on the lookout for a verification email in your inbox.

You'll start receiving the daily forecast at 8 AM.

×

10-Day Weather Forecast

Almanac

Astronomy

Mar. 29, 2017 Rise Set
Actual Time
Civil Twilight
Nautical Twilight
Astronomical Twilight
Moon
Length of Visible Light
Length of Day
Tomorrow will be .
, % of the Moon is Illuminated

Today's Extremes

State Highs State Lows

Community

WunderPhotos

Upload Photos

1,962,540 photos uploaded!

WunderBlog® & News

Nearby

Air Quality

  Air Quality AQ Index Pollutant
Not available.

Snow Depth

Station Depth Elevation

Earthquake Activity

City Distance Mag. Time & Date
Minimum magnitude displayed is 2.5.

Earthquake Activity

City Distance Mag. Time & Date
Minimum magnitude displayed is 2.5.

Coastal Water Temperatures

Place Temperature

Stations

Nearby Weather Stations

Station Location Temp. Windchill Dew Point Humidity Wind Precip. Elev Updated Type
                   

Watches & Warnings

There are currently no watches in effect.